Home > Products > Valid Products > TAF

000
FTUS41 KILN 030905 AAB
TAFDAY
TAF AMD
KDAY 030905Z 0309/0406 02008KT P6SM SCT015 OVC050
      TEMPO 0312/0314 BKN015
     FM031400 01006KT P6SM SCT015 OVC022
     FM031800 32006KT P6SM BKN040
     FM040300 28005KT P6SM SCT040 SCT100=



000
FTUS41 KILN 030858 AAB
TAFLUK
TAF AMD
KLUK 030858Z 0309/0406 05004KT P6SM OVC017
     FM031400 35004KT P6SM BKN025 OVC040
     FM031900 32005KT P6SM BKN045
     FM040500 VRB03KT P6SM SCT040 SCT100=



000
FTUS41 KILN 030858 AAB
TAFLUK
TAF AMD
KLUK 030858Z 0309/0406 05004KT P6SM OVC017
     FM031400 35004KT P6SM BKN025 OVC040
     FM031900 32005KT P6SM BKN045
     FM040500 VRB03KT P6SM SCT040 SCT100=



000
FTUS41 KILN 030857 AAC
TAFCVG
TAF AMD
KCVG 030857Z 0309/0412 30004KT P6SM OVC009
     FM031400 35005KT P6SM BKN012 OVC040
     FM031900 32006KT P6SM BKN040
     FM040600 28005KT P6SM SCT040 SCT100
     FM040900 23004KT P6SM SCT040 BKN150=



000
FTUS41 KILN 030711 AAA
TAFDAY
TAF AMD
KDAY 030711Z 0307/0406 04008KT P6SM SCT015 OVC050
      TEMPO 0307/0311 BKN015
     FM031400 01006KT P6SM SCT015 OVC022
     FM031800 32006KT P6SM BKN040
     FM040300 28005KT P6SM SCT040 SCT100=



000
FTUS41 KILN 030710 AAA
TAFLUK
TAF AMD
KLUK 030710Z 0307/0406 36003KT P6SM SCT025 OVC040
      TEMPO 0307/0309 BKN025
     FM031400 35004KT P6SM SCT015 OVC040
     FM031900 32005KT P6SM BKN045
     FM040500 VRB03KT P6SM SCT040 SCT100=



000
FTUS41 KILN 030709 AAB
TAFCVG
TAF AMD
KCVG 030709Z 0307/0412 34004KT P6SM BKN035 BKN120
     FM031400 35005KT P6SM SCT012 OVC035
     FM031900 32006KT P6SM BKN040
     FM040600 28005KT P6SM SCT040 SCT100
     FM040900 23004KT P6SM SCT040 BKN150=



000
FTUS41 KILN 030610 CCA
TAFCVG
TAF COR
KCVG 030610Z 0306/0412 34004KT P6SM SCT035 BKN120
      TEMPO 0306/0310 BKN015
     FM031400 35005KT P6SM SCT012 OVC035
     FM031900 32006KT P6SM BKN040
     FM040600 28005KT P6SM SCT040 SCT100
     FM040900 23004KT P6SM SCT040 BKN150=



000
FTUS41 KILN 030609 AAA
TAFCVG
TAF AMD
KCVG 030609Z 0306/0412 34004KT P6SM SCT035 BKN120
      TEMPO 0309/0313 BKN015
     FM031400 35005KT P6SM SCT012 OVC035
     FM031900 32006KT P6SM BKN040
     FM040600 28005KT P6SM SCT040 SCT100
     FM040900 23004KT P6SM SCT040 BKN150=



000
FTUS41 KILN 030528
TAFLUK
TAF
KLUK 030528Z 0306/0406 36003KT P6SM SCT025 OVC040
      TEMPO 0309/0313 BKN025
     FM031400 35004KT P6SM SCT015 OVC040
     FM031900 32005KT P6SM BKN045
     FM040500 VRB03KT P6SM SCT040 SCT100=



000
FTUS41 KILN 030528
TAFCMH
TAF
KCMH 030528Z 0306/0406 03008KT P6SM SCT015 OVC060
     FM031400 36006KT P6SM SCT012 OVC040
     FM031900 33008KT P6SM BKN040
     FM040300 28005KT P6SM SCT040 SCT100=



000
FTUS41 KILN 030528
TAFILN
TAF
KILN 030528Z 0306/0406 02005KT P6SM SCT015 OVC035
      TEMPO 0306/0308 BKN015
     FM031400 36006KT P6SM SCT015 OVC025
     FM031900 32008KT P6SM BKN040
     FM040400 28005KT P6SM SCT040 SCT100=



000
FTUS41 KILN 030528
TAFLCK
TAF
KLCK 030528Z 0306/0406 03006KT P6SM SCT015 OVC060
     FM031400 36006KT P6SM SCT012 OVC040
     FM031900 33008KT P6SM BKN040
     FM040300 28005KT P6SM SCT040 SCT100=



000
FTUS41 KILN 030528
TAFDAY
TAF
KDAY 030528Z 0306/0406 04008KT P6SM OVC015
     FM031400 01006KT P6SM SCT015 OVC022
     FM031800 32006KT P6SM BKN040
     FM040300 28005KT P6SM SCT040 SCT100=



000
FTUS41 KILN 030528
TAFCVG
TAF
KCVG 030528Z 0306/0412 34004KT P6SM SCT035 BKN120
      TEMPO 0309/0313 BKN025
     FM031400 35005KT P6SM SCT012 OVC035
     FM031900 32006KT P6SM BKN040
     FM040600 28005KT P6SM SCT040 SCT100
     FM040900 23004KT P6SM SCT040 BKN150=



000
FTUS41 KILN 030528
TAFCVG
TAF
KCVG 030528Z 0306/0412 34004KT P6SM SCT035 BKN120
      TEMPO 0309/0313 BKN025
     FM031400 35005KT P6SM SCT012 OVC035
     FM031900 32006KT P6SM BKN040
     FM040600 28005KT P6SM SCT040 SCT100
     FM040900 23004KT P6SM SCT040 BKN150=



000
FTUS41 KILN 030528
TAFILN
TAF
KILN 030528Z 0306/0406 02005KT P6SM SCT015 OVC035
      TEMPO 0306/0308 BKN015
     FM031400 36006KT P6SM SCT015 OVC025
     FM031900 32008KT P6SM BKN040
     FM040400 28005KT P6SM SCT040 SCT100=



000
FTUS41 KILN 030528
TAFLCK
TAF
KLCK 030528Z 0306/0406 03006KT P6SM SCT015 OVC060
     FM031400 36006KT P6SM SCT012 OVC040
     FM031900 33008KT P6SM BKN040
     FM040300 28005KT P6SM SCT040 SCT100=



000
FTUS41 KILN 030528
TAFCMH
TAF
KCMH 030528Z 0306/0406 03008KT P6SM SCT015 OVC060
     FM031400 36006KT P6SM SCT012 OVC040
     FM031900 33008KT P6SM BKN040
     FM040300 28005KT P6SM SCT040 SCT100=



000
FTUS41 KILN 030528
TAFLUK
TAF
KLUK 030528Z 0306/0406 36003KT P6SM SCT025 OVC040
      TEMPO 0309/0313 BKN025
     FM031400 35004KT P6SM SCT015 OVC040
     FM031900 32005KT P6SM BKN045
     FM040500 VRB03KT P6SM SCT040 SCT100=



000
FTUS41 KILN 030528
TAFDAY
TAF
KDAY 030528Z 0306/0406 04008KT P6SM OVC015
     FM031400 01006KT P6SM SCT015 OVC022
     FM031800 32006KT P6SM BKN040
     FM040300 28005KT P6SM SCT040 SCT100=



000
FTUS41 KILN 030251 AAA
TAFDAY
TAF AMD
KDAY 030251Z 0303/0324 02008KT P6SM BKN015 OVC040
     FM030900 02006KT 4SM BR SCT006 BKN010 OVC022
     FM031400 36006KT P6SM SCT010 OVC022
     FM031900 32008KT P6SM BKN040=



000
FTUS41 KILN 030251 AAA
TAFLUK
TAF AMD
KLUK 030251Z 0303/0324 33006KT P6SM SCT028 OVC050
     FM030600 36003KT P6SM SCT015 OVC028
     FM030900 36003KT 4SM BR BKN015 OVC028
     FM031400 35006KT P6SM SCT015 OVC028
     FM031900 32008KT P6SM BKN045=



000
FTUS41 KILN 030251 AAA
TAFILN
TAF AMD
KILN 030251Z 0303/0324 02007KT P6SM SCT015 BKN025 OVC040
     FM030600 01005KT P6SM BKN015 OVC025
     FM030900 01005KT 4SM BR SCT006 BKN010 OVC022
     FM031400 36006KT P6SM SCT010 OVC022
     FM031900 32008KT P6SM BKN040=



000
FTUS41 KILN 030251 AAA
TAFLCK
TAF AMD
KLCK 030251Z 0303/0324 03008KT P6SM SCT015 OVC040
     FM030900 01005KT 4SM BR SCT008 BKN012 OVC025
     FM031400 36006KT P6SM SCT012 OVC025
     FM031900 33008KT P6SM BKN040=



000
FTUS41 KILN 030251 AAA
TAFCMH
TAF AMD
KCMH 030251Z 0303/0324 03008KT P6SM SCT015 OVC040
     FM030900 01005KT 4SM BR SCT008 BKN012 OVC025
     FM031400 36006KT P6SM SCT012 OVC025
     FM031900 33008KT P6SM BKN040=



000
FTUS41 KILN 022329
TAFDAY
TAF
KDAY 022329Z 0300/0324 01008KT P6SM BKN015 OVC040
     FM030900 02006KT 4SM BR SCT006 BKN010 OVC022
     FM031400 36006KT P6SM SCT010 OVC022
     FM031900 32008KT P6SM BKN040=



000
FTUS41 KILN 022329
TAFLCK
TAF
KLCK 022329Z 0300/0324 36008KT P6SM SCT015 OVC040
     FM030300 36008KT P6SM BKN015 OVC040
     FM030900 36005KT 4SM BR SCT008 BKN012 OVC025
     FM031400 36006KT P6SM SCT012 OVC025
     FM031900 33008KT P6SM BKN040=



000
FTUS41 KILN 022329
TAFLUK
TAF
KLUK 022329Z 0300/0324 31006KT P6SM SCT035 BKN110
     FM030200 33006KT P6SM SCT028 OVC050
     FM030600 36003KT 4SM BR SCT015 OVC028
     FM030900 36003KT 4SM BR BKN015 OVC028
     FM031400 35006KT P6SM SCT015 OVC028
     FM031900 32008KT P6SM BKN045=



000
FTUS41 KILN 022329
TAFCMH
TAF
KCMH 022329Z 0300/0324 01008KT P6SM BKN015 OVC040
     FM030900 36005KT 4SM BR SCT008 BKN012 OVC025
     FM031400 36006KT P6SM SCT012 OVC025
     FM031900 33008KT P6SM BKN040=



000
FTUS41 KILN 022329
TAFCVG
TAF
KCVG 022329Z 0300/0406 31008KT P6SM SCT030 BKN110
     FM030200 33006KT P6SM SCT025 OVC050
     FM030600 36005KT P6SM SCT012 OVC025
     FM030900 36005KT 4SM BR SCT008 BKN012 OVC025
     FM031400 35006KT P6SM SCT012 OVC025
     FM031900 32008KT P6SM BKN040
     FM040300 28005KT P6SM SCT040 SCT100=



000
FTUS41 KILN 022329
TAFILN
TAF
KILN 022329Z 0300/0324 01007KT P6SM SCT015 BKN025 OVC040
     FM030600 01005KT P6SM BKN015 OVC025
     FM030900 01005KT 4SM BR SCT006 BKN010 OVC022
     FM031400 36006KT P6SM SCT010 OVC022
     FM031900 32008KT P6SM BKN040=



000
FTUS41 KILN 022329
TAFDAY
TAF
KDAY 022329Z 0300/0324 01008KT P6SM BKN015 OVC040
     FM030900 02006KT 4SM BR SCT006 BKN010 OVC022
     FM031400 36006KT P6SM SCT010 OVC022
     FM031900 32008KT P6SM BKN040=



000
FTUS41 KILN 022329
TAFCMH
TAF
KCMH 022329Z 0300/0324 01008KT P6SM BKN015 OVC040
     FM030900 36005KT 4SM BR SCT008 BKN012 OVC025
     FM031400 36006KT P6SM SCT012 OVC025
     FM031900 33008KT P6SM BKN040=



000
FTUS41 KILN 022329
TAFLUK
TAF
KLUK 022329Z 0300/0324 31006KT P6SM SCT035 BKN110
     FM030200 33006KT P6SM SCT028 OVC050
     FM030600 36003KT 4SM BR SCT015 OVC028
     FM030900 36003KT 4SM BR BKN015 OVC028
     FM031400 35006KT P6SM SCT015 OVC028
     FM031900 32008KT P6SM BKN045=



000
FTUS41 KILN 022329
TAFLCK
TAF
KLCK 022329Z 0300/0324 36008KT P6SM SCT015 OVC040
     FM030300 36008KT P6SM BKN015 OVC040
     FM030900 36005KT 4SM BR SCT008 BKN012 OVC025
     FM031400 36006KT P6SM SCT012 OVC025
     FM031900 33008KT P6SM BKN040=



000
FTUS41 KILN 022329
TAFILN
TAF
KILN 022329Z 0300/0324 01007KT P6SM SCT015 BKN025 OVC040
     FM030600 01005KT P6SM BKN015 OVC025
     FM030900 01005KT 4SM BR SCT006 BKN010 OVC022
     FM031400 36006KT P6SM SCT010 OVC022
     FM031900 32008KT P6SM BKN040=



000
FTUS41 KILN 022329
TAFCVG
TAF
KCVG 022329Z 0300/0406 31008KT P6SM SCT030 BKN110
     FM030200 33006KT P6SM SCT025 OVC050
     FM030600 36005KT P6SM SCT012 OVC025
     FM030900 36005KT 4SM BR SCT008 BKN012 OVC025
     FM031400 35006KT P6SM SCT012 OVC025
     FM031900 32008KT P6SM BKN040
     FM040300 28005KT P6SM SCT040 SCT100=



000
FTUS41 KILN 022116 AAA
TAFLCK
TAF AMD
KLCK 022116Z 0221/0318 36008KT P6SM SCT020 OVC040
     FM030100 36008KT P6SM BKN020 OVC040
     FM030900 36005KT 6SM BR BKN015 OVC025
     FM031400 36006KT P6SM SCT015 OVC025=



000
FTUS41 KILN 022116 AAA
TAFDAY
TAF AMD
KDAY 022116Z 0221/0318 01008KT P6SM BKN015 OVC040
     FM030100 02006KT P6SM SCT015 OVC025
     FM030900 02006KT 6SM BR BKN012 OVC022
     FM031400 36006KT P6SM SCT012 OVC022=



000
FTUS41 KILN 022116 AAA
TAFCMH
TAF AMD
KCMH 022116Z 0221/0318 36008KT P6SM BKN020 OVC040
     FM030900 36005KT 6SM BR BKN015 OVC025
     FM031400 36006KT P6SM SCT015 OVC025=



000
FTUS41 KILN 022116 AAB
TAFILN
TAF AMD
KILN 022116Z 0221/0318 36007KT P6SM SCT020 BKN040 BKN110
     FM030100 36006KT P6SM SCT020 OVC040
     FM030600 01005KT P6SM SCT015 OVC025
     FM030900 01005KT 6SM BR BKN012 OVC022
     FM031400 36006KT P6SM SCT012 OVC022=



000
FTUS41 KILN 022105 AAA
TAFCVG
TAF AMD
KCVG 022105Z 0221/0324 29008KT P6SM SCT030 BKN110
     FM030100 33006KT P6SM SCT025 OVC050
     FM030600 36005KT P6SM SCT012 OVC025
     FM030900 36005KT 4SM BR BKN012 OVC025
     FM031400 35006KT P6SM SCT012 OVC025
     FM031900 32008KT P6SM BKN035=



000
FTUS41 KILN 022105 AAA
TAFLUK
TAF AMD
KLUK 022105Z 0221/0318 29008KT P6SM SCT035 BKN110
     FM030100 33006KT P6SM SCT028 OVC050
     FM030600 36003KT 4SM BR SCT015 OVC028
     FM030900 36005KT 4SM BR BKN015 OVC028
     FM031400 35006KT P6SM SCT015 OVC028=



000
FTUS41 KILN 022105 AAA
TAFCVG
TAF AMD
KCVG 022105Z 0221/0324 29008KT P6SM SCT030 BKN110
     FM030100 33006KT P6SM SCT025 OVC050
     FM030600 36005KT P6SM SCT012 OVC025
     FM030900 36005KT 4SM BR BKN012 OVC025
     FM031400 35006KT P6SM SCT012 OVC025
     FM031900 32008KT P6SM BKN035=



000
FTUS41 KILN 022105 AAA
TAFLUK
TAF AMD
KLUK 022105Z 0221/0318 29008KT P6SM SCT035 BKN110
     FM030100 33006KT P6SM SCT028 OVC050
     FM030600 36003KT 4SM BR SCT015 OVC028
     FM030900 36005KT 4SM BR BKN015 OVC028
     FM031400 35006KT P6SM SCT015 OVC028=



000
FTUS41 KILN 021729
TAFLCK
TAF
KLCK 021729Z 0218/0318 33006KT P6SM SCT025 BKN150
      TEMPO 0218/0220 BKN025
     FM030100 01005KT P6SM SCT020 OVC050
     FM030800 36004KT P6SM OVC022
      TEMPO 0309/0313 4SM BR OVC015
     FM031500 32006KT P6SM SCT025 BKN040=



000
FTUS41 KILN 021729
TAFLUK
TAF
KLUK 021729Z 0218/0318 28008KT P6SM SCT030 BKN080
     FM030100 36005KT P6SM SCT020 OVC050
     FM030900 36004KT P6SM OVC025
      TEMPO 0309/0313 4SM BR
     FM031500 33005KT P6SM SCT025 BKN040=



000
FTUS41 KILN 021729
TAFCMH
TAF
KCMH 021729Z 0218/0318 33006KT P6SM SCT025 BKN150
      TEMPO 0218/0220 BKN025
     FM030100 01005KT P6SM SCT020 OVC050
     FM030800 36004KT P6SM OVC022
      TEMPO 0309/0313 4SM BR OVC015
     FM031500 32006KT P6SM SCT025 BKN040=



000
FTUS41 KILN 021729
TAFILN
TAF
KILN 021729Z 0218/0318 34006KT P6SM SCT020 BKN100
     FM030000 02005KT P6SM SCT020 OVC050
     FM030800 02004KT P6SM OVC022
      TEMPO 0309/0313 4SM BR
     FM031500 34005KT P6SM SCT025 BKN040=



000
FTUS41 KILN 021729
TAFCVG
TAF
KCVG 021729Z 0218/0324 28008KT P6SM SCT030 BKN080
     FM030100 36005KT P6SM SCT020 OVC050
     FM030900 36004KT P6SM OVC025
      TEMPO 0309/0313 4SM BR
     FM031500 33005KT P6SM SCT025 BKN040=



000
FTUS41 KILN 021729
TAFDAY
TAF
KDAY 021729Z 0218/0318 34006KT P6SM SCT020 BKN100
      TEMPO 0218/0220 BKN022
     FM030000 02005KT P6SM SCT020 OVC050
     FM030700 02004KT P6SM OVC022
      TEMPO 0309/0313 4SM BR OVC012
     FM031600 34005KT P6SM SCT025 BKN040=



000
FTUS41 KILN 021410 AAA
TAFCVG
TAF AMD
KCVG 021410Z 0214/0318 28008KT P6SM SCT025 BKN040
      TEMPO 0214/0216 BKN022
     FM021600 32008KT P6SM BKN040
     FM030100 36005KT P6SM SCT020 OVC045
     FM030800 36004KT 4SM BR OVC050
      TEMPO 0309/0313 2SM BR SCT070
     FM031300 32005KT P6SM VCSH SCT010 BKN060=



000
FTUS41 KILN 021410 AAA
TAFLUK
TAF AMD
KLUK 021410Z 0214/0312 28006KT P6SM SCT025 BKN040
      TEMPO 0214/0216 BKN025
     FM021600 26008KT P6SM BKN040
     FM030100 36005KT P6SM SCT020 OVC050
     FM030800 36004KT 4SM BR OVC050
      TEMPO 0309/0312 1SM BR SCT070=



000
FTUS41 KILN 021410 AAA
TAFDAY
TAF AMD
KDAY 021410Z 0214/0312 01006KT 2SM BR OVC004
     FM021500 36008KT 3SM BR OVC008
     FM021700 34006KT P6SM SCT015 BKN100
     FM022300 03006KT P6SM OVC040
     FM030500 04004KT 5SM BR SCT020 BKN090=



000
FTUS41 KILN 021410 AAA
TAFILN
TAF AMD
KILN 021410Z 0214/0312 31006KT 4SM BR SCT006 OVC015
     FM021700 34006KT P6SM SCT020 BKN100
     FM022300 02005KT P6SM OVC040
     FM030500 04004KT 5SM BR SCT025 BKN090=



000
FTUS41 KILN 021410 AAA
TAFLCK
TAF AMD
KLCK 021410Z 0214/0312 33006KT 5SM BR OVC006
     FM021600 32006KT P6SM SCT010 OVC025
     FM021800 33006KT P6SM SCT030 BKN150
     FM030100 02007KT P6SM OVC040
      TEMPO 0308/0312 5SM BR SCT100=



000
FTUS41 KILN 021410 AAA
TAFCMH
TAF AMD
KCMH 021410Z 0214/0312 33006KT 5SM BR OVC006
     FM021600 32006KT P6SM SCT010 OVC025
     FM021800 33006KT P6SM SCT030 BKN150
     FM030100 02007KT P6SM OVC040
      TEMPO 0308/0312 5SM BR SCT100=



000
FTUS41 KILN 021410 AAA
TAFLCK
TAF AMD
KLCK 021410Z 0214/0312 33006KT 5SM BR OVC006
     FM021600 32006KT P6SM SCT010 OVC025
     FM021800 33006KT P6SM SCT030 BKN150
     FM030100 02007KT P6SM OVC040
      TEMPO 0308/0312 5SM BR SCT100=



000
FTUS41 KILN 021410 AAA
TAFLUK
TAF AMD
KLUK 021410Z 0214/0312 28006KT P6SM SCT025 BKN040
      TEMPO 0214/0216 BKN025
     FM021600 26008KT P6SM BKN040
     FM030100 36005KT P6SM SCT020 OVC050
     FM030800 36004KT 4SM BR OVC050
      TEMPO 0309/0312 1SM BR SCT070=



000
FTUS41 KILN 021410 AAA
TAFILN
TAF AMD
KILN 021410Z 0214/0312 31006KT 4SM BR SCT006 OVC015
     FM021700 34006KT P6SM SCT020 BKN100
     FM022300 02005KT P6SM OVC040
     FM030500 04004KT 5SM BR SCT025 BKN090=



000
FTUS41 KILN 021410 AAA
TAFDAY
TAF AMD
KDAY 021410Z 0214/0312 01006KT 2SM BR OVC004
     FM021500 36008KT 3SM BR OVC008
     FM021700 34006KT P6SM SCT015 BKN100
     FM022300 03006KT P6SM OVC040
     FM030500 04004KT 5SM BR SCT020 BKN090=



000
FTUS41 KILN 021410 AAA
TAFCVG
TAF AMD
KCVG 021410Z 0214/0318 28008KT P6SM SCT025 BKN040
      TEMPO 0214/0216 BKN022
     FM021600 32008KT P6SM BKN040
     FM030100 36005KT P6SM SCT020 OVC045
     FM030800 36004KT 4SM BR OVC050
      TEMPO 0309/0313 2SM BR SCT070
     FM031300 32005KT P6SM VCSH SCT010 BKN060=



000
FTUS41 KILN 021410 AAA
TAFCMH
TAF AMD
KCMH 021410Z 0214/0312 33006KT 5SM BR OVC006
     FM021600 32006KT P6SM SCT010 OVC025
     FM021800 33006KT P6SM SCT030 BKN150
     FM030100 02007KT P6SM OVC040
      TEMPO 0308/0312 5SM BR SCT100=



000
FTUS41 KILN 021120
TAFCVG
TAF
KCVG 021120Z 0212/0318 VRB04KT P6SM BKN005
     FM021400 28008KT P6SM BKN015
     FM021600 32008KT P6SM BKN040 BKN100
     FM030100 36005KT P6SM SCT020 OVC045
     FM030800 36004KT 4SM BR OVC050
      TEMPO 0309/0313 2SM BR SCT070
     FM031300 32005KT P6SM VCSH SCT010 BKN060=



000
FTUS41 KILN 021120
TAFLCK
TAF
KLCK 021120Z 0212/0312 35006KT P6SM OVC005
      TEMPO 0212/0215 2SM BR
     FM021500 32006KT P6SM SCT010 OVC025
     FM021700 33006KT P6SM SCT030 BKN150
     FM030100 02007KT P6SM OVC040
      TEMPO 0308/0312 5SM BR SCT100=



000
FTUS41 KILN 021120
TAFCMH
TAF
KCMH 021120Z 0212/0312 35006KT P6SM OVC005
      TEMPO 0212/0215 2SM BR
     FM021500 32006KT P6SM SCT010 OVC025
     FM021700 33006KT P6SM SCT030 BKN150
     FM030100 02007KT P6SM OVC040
      TEMPO 0308/0312 5SM BR SCT100=



000
FTUS41 KILN 021120
TAFILN
TAF
KILN 021120Z 0212/0312 34006KT 4SM BR SCT006 OVC015
      TEMPO 0212/0215 2SM BR BKN006
     FM021700 34006KT P6SM SCT020 BKN100
     FM022300 02005KT P6SM OVC040
     FM030500 04004KT 5SM BR SCT025 BKN090=



000
FTUS41 KILN 021120
TAFDAY
TAF
KDAY 021120Z 0212/0312 01006KT 2SM BR OVC015
      TEMPO 0212/0213 3/4SM BR OVC003
     FM021700 34006KT P6SM SCT015 BKN100
     FM022300 03006KT P6SM OVC040
     FM030500 04004KT 5SM BR SCT020 BKN090=



000
FTUS41 KILN 021120
TAFLUK
TAF
KLUK 021120Z 0212/0312 30006KT P6SM SCT008 BKN012
      TEMPO 0212/0213 5SM BR BKN008
     FM021500 26008KT P6SM BKN028
     FM030100 36005KT P6SM SCT020 OVC050
     FM030800 36004KT 4SM BR OVC050
      TEMPO 0309/0312 1SM BR SCT070=



000
FTUS41 KILN 021032 AAB
TAFLUK
TAF AMD
KLUK 021032Z 0211/0306 30006KT P6SM SCT008 BKN012
      TEMPO 0211/0213 5SM BR BKN008
     FM021500 26008KT P6SM BKN028
     FM022100 26008KT P6SM VCSH OVC040
     FM030100 36006KT 4SM BR OVC025
      TEMPO 0302/0306 1SM BR=



000
FTUS41 KILN 020904 AAB
TAFCVG
TAF AMD
KCVG 020904Z 0209/0312 28006KT P6SM SCT015 BKN025
      TEMPO 0209/0211 5SM BR OVC005
     FM021500 26008KT P6SM BKN025
     FM022100 28008KT P6SM VCSH OVC040
     FM030100 36006KT 5SM BR OVC020
      TEMPO 0308/0312 2SM BR SCT020 OVC080=



000
FTUS41 KILN 020810 AAC
TAFILN
TAF AMD
KILN 020810Z 0208/0306 33007KT 2SM BR SCT005
      TEMPO 0208/0212 1/2SM FG BKN003
     FM021200 34006KT P6SM OVC015
      TEMPO 0212/0215 4SM BR
     FM021700 34006KT P6SM SCT015 BKN150
     FM022000 36007KT P6SM VCSH OVC025
     FM030200 02006KT 5SM BR BKN020=



000
FTUS41 KILN 020809 AAB
TAFDAY
TAF AMD
KDAY 020809Z 0208/0306 02007KT 3SM BR OVC006
      TEMPO 0208/0212 1SM BR OVC003
     FM021200 01006KT P6SM OVC015
     FM021700 34006KT P6SM SCT015 BKN100
     FM022000 36007KT P6SM VCSH OVC025
     FM030200 02006KT 5SM BR BKN020=



000
FTUS41 KILN 020703 AAA
TAFLCK
TAF AMD
KLCK 020703Z 0207/0306 VRB04KT P6SM VCSH SCT040 BKN100
      TEMPO 0207/0209 27007KT 5SM -SHRA BKN030
     FM020900 34006KT P6SM SCT015 BKN100
      TEMPO 0209/0213 5SM BR BKN015
     FM021300 32006KT P6SM OVC025
     FM021700 33006KT P6SM SCT025 BKN150
     FM030000 02007KT 5SM BR OVC040=



000
FTUS41 KILN 020702 AAA
TAFCMH
TAF AMD
KCMH 020702Z 0207/0306 VRB04KT P6SM VCSH SCT040 BKN100
      TEMPO 0207/0209 27007KT 5SM -SHRA BKN030
     FM020900 34006KT P6SM SCT015 BKN100
      TEMPO 0209/0213 5SM BR BKN015
     FM021300 32006KT P6SM OVC025
     FM021700 33006KT P6SM SCT025 BKN150
     FM030000 02007KT 5SM BR OVC040=



000
FTUS41 KILN 020700 AAA
TAFLUK
TAF AMD
KLUK 020700Z 0207/0306 28006KT P6SM SCT030 BKN100
      TEMPO 0207/0209 BKN025
     FM021500 26008KT P6SM BKN028
     FM022100 26008KT P6SM VCSH OVC040
     FM030100 36006KT 4SM BR OVC025
      TEMPO 0302/0306 1SM BR=



000
FTUS41 KILN 020700 AAA
TAFLUK
TAF AMD
KLUK 020700Z 0207/0306 28006KT P6SM SCT030 BKN100
      TEMPO 0207/0209 BKN025
     FM021500 26008KT P6SM BKN028
     FM022100 26008KT P6SM VCSH OVC040
     FM030100 36006KT 4SM BR OVC025
      TEMPO 0302/0306 1SM BR=



000
FTUS41 KILN 020659 AAA
TAFCVG
TAF AMD
KCVG 020659Z 0207/0312 28006KT P6SM SCT025 BKN100
     FM021500 26008KT P6SM BKN025
     FM022100 28008KT P6SM VCSH OVC040
     FM030100 36006KT 5SM BR OVC020
      TEMPO 0308/0312 2SM BR SCT020 OVC080=



000
FTUS41 KILN 020659 AAA
TAFCVG
TAF AMD
KCVG 020659Z 0207/0312 28006KT P6SM SCT025 BKN100
     FM021500 26008KT P6SM BKN025
     FM022100 28008KT P6SM VCSH OVC040
     FM030100 36006KT 5SM BR OVC020
      TEMPO 0308/0312 2SM BR SCT020 OVC080=



000
FTUS41 KILN 020657 AAB
TAFILN
TAF AMD
KILN 020657Z 0207/0306 33007KT P6SM SCT025 OVC080
      TEMPO 0208/0212 BKN030
     FM021200 34006KT P6SM OVC015
     FM021700 34006KT P6SM SCT015 BKN150
     FM022000 36007KT P6SM VCSH OVC025
     FM030200 02006KT 5SM BR BKN020=



000
FTUS41 KILN 020653 AAA
TAFDAY
TAF AMD
KDAY 020653Z 0207/0306 34006KT P6SM SCT025 OVC100
      TEMPO 0208/0212 BKN025
     FM021200 34006KT P6SM OVC015
     FM021700 34006KT P6SM SCT015 BKN150
     FM022000 36007KT P6SM VCSH OVC025
     FM030200 02006KT 5SM BR BKN020=



000
FTUS41 KILN 020540
TAFILN
TAF
KILN 020540Z 0206/0306 22006KT P6SM TSRA BKN050CB
      TEMPO 0206/0208 30009G15KT 4SM TSRA BR OVC030CB
     FM020800 34006KT P6SM OVC025
     FM021200 34006KT P6SM OVC015
     FM021700 34006KT P6SM SCT015 BKN150
     FM022000 36007KT P6SM VCSH OVC025
     FM030200 02006KT 5SM BR BKN020=



000
FTUS41 KILN 020540
TAFLCK
TAF
KLCK 020540Z 0206/0306 VRB04KT 5SM -TSRA BR BKN040CB
      TEMPO 0206/0208 2SM TSRA BR OVC030CB
     FM020900 34006KT 5SM BR SCT015
      TEMPO 0209/0213 2SM BR BKN015
     FM021300 32006KT P6SM OVC025
     FM021700 33006KT P6SM SCT025 BKN150
     FM030000 02007KT 5SM BR OVC040=



000
FTUS41 KILN 020540
TAFLUK
TAF
KLUK 020540Z 0206/0306 17006KT P6SM VCTS SCT030CB OVC050
      TEMPO 0206/0207 4SM TSRA BR OVC030CB
     FM020800 28008KT P6SM SCT030 BKN100
     FM021500 26008KT P6SM BKN028
     FM022100 26008KT P6SM VCSH OVC040
     FM030100 36006KT 4SM BR OVC025
      TEMPO 0302/0306 1SM BR=



000
FTUS41 KILN 020540
TAFDAY
TAF
KDAY 020540Z 0206/0306 29006KT P6SM TSRA BKN050CB
      TEMPO 0206/0207 4SM TSRA BR OVC030CB
     FM020800 34006KT P6SM OVC025
     FM021200 34006KT P6SM OVC015
     FM021700 34006KT P6SM SCT015 BKN150
     FM022000 36007KT P6SM VCSH OVC025
     FM030200 02006KT 5SM BR BKN020=



000
FTUS41 KILN 020540
TAFCVG
TAF
KCVG 020540Z 0206/0312 17006KT P6SM VCTS SCT030CB OVC050
      TEMPO 0206/0207 4SM TSRA BR OVC030CB
     FM020730 28008KT P6SM SCT025 BKN100
     FM021500 26008KT P6SM BKN025
     FM022100 28008KT P6SM VCSH OVC040
     FM030100 36006KT 5SM BR OVC020
      TEMPO 0308/0312 2SM BR SCT020 OVC080=



000
FTUS41 KILN 020540
TAFCMH
TAF
KCMH 020540Z 0206/0306 VRB04KT 5SM -TSRA BR BKN040CB
      TEMPO 0206/0208 2SM TSRA BR OVC030CB
     FM020900 34006KT 5SM BR SCT015
      TEMPO 0209/0213 2SM BR BKN015
     FM021300 32006KT P6SM OVC025
     FM021700 33006KT P6SM SCT025 BKN150
     FM030000 02007KT 5SM BR OVC040=



000
FTUS41 KILN 020252 AAB
TAFDAY
TAF AMD
KDAY 020252Z 0203/0224 03006KT P6SM BKN040
     FM020400 06006KT P6SM VCTS BKN040CB
      TEMPO 0204/0207 4SM TSRA BR OVC025CB
     FM020800 34006KT P6SM OVC025
     FM021200 34006KT P6SM OVC015
     FM021500 34006KT P6SM OVC015=



000
FTUS41 KILN 020252 AAA
TAFCVG
TAF AMD
KCVG 020252Z 0203/0306 17006KT P6SM SCT050 SCT100 BKN250
     FM020500 24008KT P6SM VCTS BKN050CB
      TEMPO 0205/0207 4SM TSRA BR OVC025CB
     FM020900 28008KT P6SM SCT025 SCT040
     FM021500 26008KT P6SM BKN025
     FM022100 26008KT P6SM VCSH OVC040=



000
FTUS41 KILN 020252 AAA
TAFLCK
TAF AMD
KLCK 020252Z 0203/0224 VRB04KT P6SM BKN040
     FM020600 VRB04KT P6SM VCTS BKN040CB
      TEMPO 0206/0209 4SM TSRA BR OVC025CB
     FM020900 34006KT P6SM VCSH OVC025
     FM021300 32006KT P6SM OVC015=



000
FTUS41 KILN 020252 AAA
TAFLUK
TAF AMD
KLUK 020252Z 0203/0224 17005KT P6SM SCT050 SCT100 BKN250
     FM020500 24008KT P6SM VCTS BKN050CB
      TEMPO 0205/0207 4SM TSRA BR OVC028CB
     FM020900 28008KT P6SM SCT028 SCT045
     FM021500 26008KT P6SM BKN028=



000
FTUS41 KILN 020252 AAC
TAFILN
TAF AMD
KILN 020252Z 0203/0224 18006KT P6SM SCT050 BKN100
     FM020600 24008KT P6SM VCTS BKN050CB
      TEMPO 0206/0208 4SM TSRA BR OVC025CB
     FM021000 30008KT P6SM BKN025
     FM021500 29008KT P6SM BKN025=



000
FTUS41 KILN 020252 AAA
TAFCMH
TAF AMD
KCMH 020252Z 0203/0224 VRB04KT P6SM BKN040
     FM020600 VRB04KT P6SM VCTS BKN040CB
      TEMPO 0206/0209 4SM TSRA BR OVC025CB
     FM020900 34006KT P6SM VCSH OVC025
     FM021300 32006KT P6SM OVC015=



000
FTUS41 KILN 020252 AAA
TAFLUK
TAF AMD
KLUK 020252Z 0203/0224 17005KT P6SM SCT050 SCT100 BKN250
     FM020500 24008KT P6SM VCTS BKN050CB
      TEMPO 0205/0207 4SM TSRA BR OVC028CB
     FM020900 28008KT P6SM SCT028 SCT045
     FM021500 26008KT P6SM BKN028=



000
FTUS41 KILN 020252 AAA
TAFCVG
TAF AMD
KCVG 020252Z 0203/0306 17006KT P6SM SCT050 SCT100 BKN250
     FM020500 24008KT P6SM VCTS BKN050CB
      TEMPO 0205/0207 4SM TSRA BR OVC025CB
     FM020900 28008KT P6SM SCT025 SCT040
     FM021500 26008KT P6SM BKN025
     FM022100 26008KT P6SM VCSH OVC040=



000
FTUS41 KILN 020252 AAA
TAFLCK
TAF AMD
KLCK 020252Z 0203/0224 VRB04KT P6SM BKN040
     FM020600 VRB04KT P6SM VCTS BKN040CB
      TEMPO 0206/0209 4SM TSRA BR OVC025CB
     FM020900 34006KT P6SM VCSH OVC025
     FM021300 32006KT P6SM OVC015=



000
FTUS41 KILN 020252 AAB
TAFDAY
TAF AMD
KDAY 020252Z 0203/0224 03006KT P6SM BKN040
     FM020400 06006KT P6SM VCTS BKN040CB
      TEMPO 0204/0207 4SM TSRA BR OVC025CB
     FM020800 34006KT P6SM OVC025
     FM021200 34006KT P6SM OVC015
     FM021500 34006KT P6SM OVC015=



000
FTUS41 KILN 020252 AAA
TAFCMH
TAF AMD
KCMH 020252Z 0203/0224 VRB04KT P6SM BKN040
     FM020600 VRB04KT P6SM VCTS BKN040CB
      TEMPO 0206/0209 4SM TSRA BR OVC025CB
     FM020900 34006KT P6SM VCSH OVC025
     FM021300 32006KT P6SM OVC015=



000
FTUS41 KILN 020252 AAC
TAFILN
TAF AMD
KILN 020252Z 0203/0224 18006KT P6SM SCT050 BKN100
     FM020600 24008KT P6SM VCTS BKN050CB
      TEMPO 0206/0208 4SM TSRA BR OVC025CB
     FM021000 30008KT P6SM BKN025
     FM021500 29008KT P6SM BKN025=



000
FTUS41 KILN 020136 AAB
TAFILN
TAF AMD
KILN 020136Z 0202/0224 23006KT P6SM SCT050 BKN100
     FM020600 24008KT P6SM VCSH BKN050
     FM021000 29008KT P6SM BKN025
     FM021500 29008KT P6SM BKN025=



000
FTUS41 KILN 020053 AAA
TAFDAY
TAF AMD
KDAY 020053Z 0201/0224 24006KT P6SM VCTS BKN040CB
      TEMPO 0201/0202 24020G30KT 2SM TSRA BR OVC025CB
     FM020300 VRB04KT P6SM VCTS BKN040CB
      TEMPO 0203/0207 4SM -SHRA BR OVC025
     FM020800 29006KT P6SM OVC025
     FM021200 29006KT P6SM OVC015
     FM021500 34006KT P6SM OVC015=



000
FTUS41 KILN 020053 AAA
TAFDAY
TAF AMD
KDAY 020053Z 0201/0224 24006KT P6SM VCTS BKN040CB
      TEMPO 0201/0202 24020G30KT 2SM TSRA BR OVC025CB
     FM020300 VRB04KT P6SM VCTS BKN040CB
      TEMPO 0203/0207 4SM -SHRA BR OVC025
     FM020800 29006KT P6SM OVC025
     FM021200 29006KT P6SM OVC015
     FM021500 34006KT P6SM OVC015=



000
FTUS41 KILN 012338
TAFLUK
TAF
KLUK 012338Z 0200/0224 19005KT P6SM VCTS BKN040CB
     FM020200 23006KT P6SM SCT050 SCT100
     FM020600 24008KT P6SM VCSH BKN050
     FM020900 28008KT P6SM SCT028 SCT045
     FM021500 26008KT P6SM BKN028=



000
FTUS41 KILN 012338
TAFDAY
TAF
KDAY 012338Z 0200/0224 24006KT P6SM VCTS BKN040CB
      TEMPO 0200/0203 4SM -TSRA BR OVC025CB
     FM020300 VRB04KT P6SM VCTS BKN040CB
      TEMPO 0203/0207 4SM -SHRA BR OVC025
     FM020800 29006KT P6SM OVC025
     FM021200 29006KT P6SM OVC015
     FM021500 34006KT P6SM OVC015=



000
FTUS41 KILN 012338
TAFLCK
TAF
KLCK 012338Z 0200/0224 04007KT P6SM VCTS BKN040CB
      TEMPO 0201/0203 4SM -TSRA BR OVC025CB
     FM020300 11004KT P6SM VCTS BKN040CB
      TEMPO 0205/0208 4SM -SHRA BR OVC025
     FM020800 34006KT P6SM VCSH OVC025
     FM021300 32006KT P6SM OVC015=



000
FTUS41 KILN 012338
TAFILN
TAF
KILN 012338Z 0200/0224 19006KT P6SM VCTS BKN040CB
      TEMPO 0200/0202 4SM -TSRA BR OVC025CB
     FM020200 23006KT P6SM SCT050 BKN100
     FM020600 24008KT P6SM VCSH BKN050
     FM021000 29008KT P6SM BKN025
     FM021500 29008KT P6SM BKN025=



000
FTUS41 KILN 012338
TAFCVG
TAF
KCVG 012338Z 0200/0306 19005KT P6SM VCTS BKN040CB
     FM020200 23006KT P6SM SCT050 SCT100
     FM020600 24008KT P6SM VCSH BKN050
     FM020900 28008KT P6SM SCT025 SCT040
     FM021500 26008KT P6SM BKN025
     FM022100 26008KT P6SM VCSH OVC040=



000
FTUS41 KILN 012338
TAFCMH
TAF
KCMH 012338Z 0200/0224 04007KT P6SM VCTS BKN040CB
      TEMPO 0201/0203 4SM -TSRA BR OVC025CB
     FM020300 11004KT P6SM VCTS BKN040CB
      TEMPO 0205/0208 4SM -SHRA BR OVC025
     FM020800 34006KT P6SM VCSH OVC025
     FM021300 32006KT P6SM OVC015=



000
FTUS41 KILN 012248 AAD
TAFLUK
TAF AMD
KLUK 012248Z 0123/0218 22006KT 5SM -TSRA BR OVC040CB
      TEMPO 0123/0124 18015G30KT 1SM +TSRAGR BR OVC022CB
     FM020100 21003KT P6SM VCSH BKN050
     FM021100 29004KT P6SM SCT025 BKN035
     FM021500 32005KT P6SM BKN025=



000
FTUS41 KILN 012228 AAC
TAFLUK
TAF AMD
KLUK 012228Z 0122/0218 22006KT P6SM VCTS BKN050CB
      TEMPO 0122/0124 18015G30KT 1SM +TSRA BR OVC022CB
     FM020100 21003KT P6SM VCSH BKN050
     FM021100 29004KT P6SM SCT025 BKN035
     FM021500 32005KT P6SM BKN025=



000
FTUS41 KILN 012223 AAD
TAFCVG
TAF AMD
KCVG 012223Z 0122/0224 23006KT P6SM VCTS BKN040CB
      TEMPO 0122/0123 18015G30KT 1SM +TSRAGR BR OVC020CB
     FM020100 21003KT P6SM VCSH BKN040
     FM021100 29004KT P6SM SCT025 BKN035
     FM021500 32005KT P6SM BKN025
     FM021900 34005KT P6SM VCSH BKN035=



000
FTUS41 KILN 012223 AAD
TAFCVG
TAF AMD
KCVG 012223Z 0122/0224 23006KT P6SM VCTS BKN040CB
      TEMPO 0122/0123 18015G30KT 1SM +TSRAGR BR OVC020CB
     FM020100 21003KT P6SM VCSH BKN040
     FM021100 29004KT P6SM SCT025 BKN035
     FM021500 32005KT P6SM BKN025
     FM021900 34005KT P6SM VCSH BKN035=



000
FTUS41 KILN 012221 AAC
TAFCVG
TAF AMD
KCVG 012221Z 0122/0224 23006KT P6SM VCTS BKN040CB
      TEMPO 0122/0123 18015G30KT 1SM +TSRA BR OVC020CB
     FM020100 21003KT P6SM VCSH BKN040
     FM021100 29004KT P6SM SCT025 BKN035
     FM021500 32005KT P6SM BKN025
     FM021900 34005KT P6SM VCSH BKN035=



000
FTUS41 KILN 012209 AAB
TAFLUK
TAF AMD
KLUK 012209Z 0122/0218 22006KT P6SM VCTS BKN050CB
      TEMPO 0122/0124 4SM TSRA BR OVC028CB
     FM020100 21003KT P6SM VCSH BKN050
     FM021100 29004KT P6SM SCT025 BKN035
     FM021500 32005KT P6SM BKN025=



000
FTUS41 KILN 012207 AAB
TAFCVG
TAF AMD
KCVG 012207Z 0122/0224 23006KT P6SM VCTS BKN040CB
      TEMPO 0122/0124 4SM TSRA BR OVC025CB
     FM020100 21003KT P6SM VCSH BKN040
     FM021100 29004KT P6SM SCT025 BKN035
     FM021500 32005KT P6SM BKN025
     FM021900 34005KT P6SM VCSH BKN035=



000
FTUS41 KILN 012207 AAB
TAFCVG
TAF AMD
KCVG 012207Z 0122/0224 23006KT P6SM VCTS BKN040CB
      TEMPO 0122/0124 4SM TSRA BR OVC025CB
     FM020100 21003KT P6SM VCSH BKN040
     FM021100 29004KT P6SM SCT025 BKN035
     FM021500 32005KT P6SM BKN025
     FM021900 34005KT P6SM VCSH BKN035=



000
FTUS41 KILN 012032 AAA
TAFDAY
TAF AMD
KDAY 012032Z 0121/0218 24005KT P6SM SCT025 BKN040
     FM020100 VRB03KT P6SM VCSH BKN040
      TEMPO 0203/0207 5SM -SHRA BR OVC025
     FM021000 32005KT P6SM BKN018
     FM021500 34006KT P6SM BKN025=



000
FTUS41 KILN 012032 AAA
TAFLUK
TAF AMD
KLUK 012032Z 0121/0218 21006KT P6SM BKN050
     FM012200 22006KT P6SM VCTS BKN050CB
     FM020100 21003KT P6SM VCSH BKN050
     FM021100 29004KT P6SM SCT025 BKN035
     FM021500 32005KT P6SM BKN025=



000
FTUS41 KILN 012032 AAA
TAFCVG
TAF AMD
KCVG 012032Z 0121/0224 23006KT P6SM BKN040
     FM012200 23006KT P6SM VCTS BKN040CB
     FM020100 21003KT P6SM VCSH BKN040
     FM021100 29004KT P6SM SCT025 BKN035
     FM021500 32005KT P6SM BKN025
     FM021900 34005KT P6SM VCSH BKN035=



000
FTUS41 KILN 012032 AAA
TAFCMH
TAF AMD
KCMH 012032Z 0121/0218 23006KT P6SM BKN040
     FM020400 VRB03KT P6SM VCSH BKN050
      TEMPO 0206/0209 5SM -SHRA BR OVC025
     FM020900 30004KT P6SM VCSH BKN018
     FM021400 33006KT P6SM BKN025=



000
FTUS41 KILN 012032 AAC
TAFLCK
TAF AMD
KLCK 012032Z 0121/0218 23006KT P6SM BKN040
     FM020400 VRB03KT P6SM VCSH BKN050
      TEMPO 0206/0209 5SM -SHRA BR OVC025
     FM020900 30004KT P6SM VCSH BKN018
     FM021400 33006KT P6SM BKN025=



000
FTUS41 KILN 012032 AAC
TAFILN
TAF AMD
KILN 012032Z 0121/0218 23006KT P6SM BKN040
     FM012300 23006KT P6SM VCTS BKN040CB
     FM020200 VRB03KT P6SM VCSH BKN040
     FM021100 31005KT P6SM BKN025
     FM021600 33005KT P6SM BKN035=



000
FTUS41 KILN 011816 AAB
TAFLCK
TAF AMD
KLCK 011816Z 0118/0218 25006KT P6SM VCSH BKN025 OVC060
      TEMPO 0118/0119 -SHRA OVC025
     FM011900 28006KT P6SM VCSH SCT025 BKN040
     FM012300 VRB03KT P6SM SCT050 BKN080
     FM020400 VRB03KT P6SM VCSH BKN050
      TEMPO 0206/0209 -SHRA
     FM020900 30004KT P6SM VCSH BKN018
     FM021400 33006KT P6SM BKN025=



000
FTUS41 KILN 011801 AAA
TAFLCK
TAF AMD
KLCK 011801Z 0118/0218 25006KT P6SM VCSH BKN025 OVC060
     FM011900 28006KT P6SM VCSH SCT025 BKN040
     FM012300 VRB03KT P6SM SCT050 BKN080
     FM020400 VRB03KT P6SM VCSH BKN050
      TEMPO 0206/0209 -SHRA
     FM020900 30004KT P6SM VCSH BKN018
     FM021400 33006KT P6SM BKN025=



000
FTUS41 KILN 011757
TAFCVG
TAF
KCVG 011757Z 0118/0224 26006KT P6SM VCSH SCT025 BKN035
      TEMPO 0118/0121 5SM -SHRA
     FM012200 24005KT P6SM SCT050 BKN080
     FM020100 21003KT P6SM VCSH BKN050
     FM021100 29004KT P6SM SCT025 BKN035
     FM021500 32005KT P6SM BKN025
     FM021900 34005KT P6SM VCSH BKN035=



000
FTUS41 KILN 011757
TAFLUK
TAF
KLUK 011757Z 0118/0218 26006KT P6SM VCSH SCT028 BKN035
      TEMPO 0118/0121 5SM -SHRA
     FM012200 24005KT P6SM SCT050 BKN080
     FM020100 21003KT P6SM VCSH BKN050
     FM021100 29004KT P6SM SCT025 BKN035
     FM021500 32005KT P6SM BKN025=



000
FTUS41 KILN 011757
TAFLCK
TAF
KLCK 011757Z 0118/0218 25006KT P6SM FEW025 BKN035
     FM011900 28006KT P6SM VCSH SCT025 BKN040
     FM012300 VRB03KT P6SM SCT050 BKN080
     FM020400 VRB03KT P6SM VCSH BKN050
      TEMPO 0206/0209 -SHRA
     FM020900 30004KT P6SM VCSH BKN018
     FM021400 33006KT P6SM BKN025=



000
FTUS41 KILN 011757
TAFCMH
TAF
KCMH 011757Z 0118/0218 25006KT P6SM FEW025 BKN035
     FM011900 28006KT P6SM VCSH SCT025 BKN040
     FM012300 VRB03KT P6SM SCT050 BKN080
     FM020400 VRB03KT P6SM VCSH BKN050
      TEMPO 0206/0209 -SHRA
     FM020900 30004KT P6SM VCSH BKN018
     FM021400 33006KT P6SM BKN025=



000
FTUS41 KILN 011757
TAFCVG
TAF
KCVG 011757Z 0118/0224 26006KT P6SM VCSH SCT025 BKN035
      TEMPO 0118/0121 5SM -SHRA
     FM012200 24005KT P6SM SCT050 BKN080
     FM020100 21003KT P6SM VCSH BKN050
     FM021100 29004KT P6SM SCT025 BKN035
     FM021500 32005KT P6SM BKN025
     FM021900 34005KT P6SM VCSH BKN035=



000
FTUS41 KILN 011757
TAFLUK
TAF
KLUK 011757Z 0118/0218 26006KT P6SM VCSH SCT028 BKN035
      TEMPO 0118/0121 5SM -SHRA
     FM012200 24005KT P6SM SCT050 BKN080
     FM020100 21003KT P6SM VCSH BKN050
     FM021100 29004KT P6SM SCT025 BKN035
     FM021500 32005KT P6SM BKN025=



000
FTUS41 KILN 011757
TAFILN
TAF
KILN 011757Z 0118/0218 27005KT P6SM VCSH SCT025 BKN040
      TEMPO 0119/0122 5SM -SHRA
     FM012300 VRB03KT P6SM SCT050 BKN080
     FM020200 VRB03KT P6SM VCSH BKN040
     FM021100 31005KT P6SM BKN025
     FM021600 33005KT P6SM BKN035=



000
FTUS41 KILN 011757
TAFDAY
TAF
KDAY 011757Z 0118/0218 27005KT P6SM VCSH SCT025 BKN040
      TEMPO 0118/0121 -SHRA
     FM012200 VRB03KT P6SM SCT050 BKN080
     FM020100 VRB03KT P6SM VCSH BKN040
      TEMPO 0203/0207 -SHRA
     FM021000 32005KT P6SM BKN018
     FM021500 34006KT P6SM BKN025=



000
FTUS41 KILN 011706 AAC
TAFLCK
TAF AMD
KLCK 011706Z 0117/0212 25006KT P6SM VCSH BKN025
     FM011900 28006KT P6SM VCSH SCT025 BKN040
     FM012300 VRB03KT P6SM SCT050 BKN080
     FM020400 VRB03KT P6SM VCSH BKN050
      TEMPO 0206/0209 -SHRA
     FM020900 30004KT P6SM VCSH BKN025=



000
FTUS41 KILN 011706 AAC
TAFLCK
TAF AMD
KLCK 011706Z 0117/0212 25006KT P6SM VCSH BKN025
     FM011900 28006KT P6SM VCSH SCT025 BKN040
     FM012300 VRB03KT P6SM SCT050 BKN080
     FM020400 VRB03KT P6SM VCSH BKN050
      TEMPO 0206/0209 -SHRA
     FM020900 30004KT P6SM VCSH BKN025=



000
FTUS41 KILN 011559 AAC
TAFLUK
TAF AMD
KLUK 011559Z 0116/0212 20006KT P6SM FEW015 BKN080
     FM011700 26006KT P6SM VCSH SCT028 BKN035
      TEMPO 0119/0122 5SM -SHRA
     FM012200 24005KT P6SM SCT050 BKN080
     FM020100 21003KT P6SM VCSH BKN050
     FM021100 29004KT P6SM SCT025 BKN035=



000
FTUS41 KILN 011559 AAB
TAFILN
TAF AMD
KILN 011559Z 0116/0212 22006KT P6SM BKN035
     FM011800 27005KT P6SM VCSH SCT025 BKN040
      TEMPO 0119/0122 5SM -SHRA
     FM012300 VRB03KT P6SM SCT050 BKN080
     FM020200 VRB03KT P6SM VCSH BKN040
     FM021100 33005KT P6SM BKN025=



000
FTUS41 KILN 011559 AAB
TAFLCK
TAF AMD
KLCK 011559Z 0116/0212 22004KT P6SM BKN015
     FM011700 25006KT P6SM FEW025 BKN035
     FM011900 28006KT P6SM VCSH SCT025 BKN040
     FM012300 VRB03KT P6SM SCT050 BKN080
     FM020400 VRB03KT P6SM VCSH BKN050
      TEMPO 0206/0209 -SHRA
     FM020900 30004KT P6SM VCSH BKN025=



000
FTUS41 KILN 011559 AAB
TAFDAY
TAF AMD
KDAY 011559Z 0116/0212 22006KT P6SM BKN035
      TEMPO 0116/0117 BKN022
     FM011800 27005KT P6SM VCSH SCT025 BKN040
      TEMPO 0118/0121 -SHRA
     FM012200 VRB03KT P6SM SCT050 BKN080
     FM020100 VRB03KT P6SM VCSH BKN040
      TEMPO 0203/0207 -SHRA
     FM021000 33005KT P6SM BKN025=



000
FTUS41 KILN 011559 AAB
TAFCMH
TAF AMD
KCMH 011559Z 0116/0212 22004KT P6SM BKN015
     FM011700 25006KT P6SM FEW025 BKN035
     FM011900 28006KT P6SM VCSH SCT025 BKN040
     FM012300 VRB03KT P6SM SCT050 BKN080
     FM020400 VRB03KT P6SM VCSH BKN050
      TEMPO 0206/0209 -SHRA
     FM020900 30004KT P6SM VCSH BKN025=



000
FTUS41 KILN 011559 AAC
TAFCVG
TAF AMD
KCVG 011559Z 0116/0218 20006KT P6SM FEW015 BKN080
     FM011700 26006KT P6SM VCSH SCT025 BKN035
      TEMPO 0119/0122 5SM -SHRA
     FM012200 24005KT P6SM SCT050 BKN080
     FM020100 21003KT P6SM VCSH BKN050
     FM021100 29004KT P6SM SCT025 BKN035
     FM021500 32005KT P6SM BKN025=



000
FTUS41 KILN 011449 AAB
TAFILN
TAF AMD
KILN 011449Z 0115/0212 22006KT P6SM BKN035
      TEMPO 0115/0116 BKN022
     FM011800 27005KT P6SM VCSH SCT025 BKN040
      TEMPO 0119/0122 -SHRA
     FM012300 VRB03KT P6SM SCT050 BKN080
     FM020200 VRB03KT P6SM VCSH BKN040
     FM021100 33005KT P6SM BKN025=



000
FTUS41 KILN 011449 AAB
TAFCVG
TAF AMD
KCVG 011449Z 0115/0218 20006KT P6SM FEW015 BKN080
     FM011700 26006KT P6SM VCSH SCT025 BKN035
      TEMPO 0119/0122 -SHRA
     FM012200 24005KT P6SM SCT050 BKN080
     FM020100 21003KT P6SM VCSH BKN050
     FM021100 29004KT P6SM SCT025 BKN035=



000
FTUS41 KILN 011449 AAA
TAFLCK
TAF AMD
KLCK 011449Z 0115/0212 22004KT P6SM BKN015
     FM011700 25006KT P6SM FEW025 BKN035
     FM011900 28006KT P6SM VCSH SCT025 BKN040
     FM012300 VRB03KT P6SM SCT050 BKN080
     FM020400 VRB03KT P6SM VCSH BKN050
     FM020900 30004KT P6SM VCSH BKN025=



000
FTUS41 KILN 011449 AAA
TAFDAY
TAF AMD
KDAY 011449Z 0115/0212 22006KT P6SM BKN022
      TEMPO 0115/0116 BKN008
     FM011800 27005KT P6SM VCSH SCT025 BKN040
      TEMPO 0118/0121 -SHRA
     FM012200 VRB03KT P6SM SCT050 BKN080
     FM020100 VRB03KT P6SM VCSH BKN040
     FM021000 33005KT P6SM BKN025=



000
FTUS41 KILN 011449 AAA
TAFCMH
TAF AMD
KCMH 011449Z 0115/0212 22004KT P6SM BKN015
     FM011700 25006KT P6SM FEW025 BKN035
     FM011900 28006KT P6SM VCSH SCT025 BKN040
     FM012300 VRB03KT P6SM SCT050 BKN080
     FM020400 VRB03KT P6SM VCSH BKN050
     FM020900 30004KT P6SM VCSH BKN025=



000
FTUS41 KILN 011449 AAB
TAFLUK
TAF AMD
KLUK 011449Z 0115/0212 20006KT P6SM FEW015 BKN080
     FM011700 26006KT P6SM VCSH SCT028 BKN035
      TEMPO 0119/0122 -SHRA
     FM012200 24005KT P6SM SCT050 BKN080
     FM020100 21003KT P6SM VCSH BKN050
     FM021100 29004KT P6SM SCT025 BKN035=



000
FTUS41 KILN 011449 AAA
TAFCMH
TAF AMD
KCMH 011449Z 0115/0212 22004KT P6SM BKN015
     FM011700 25006KT P6SM FEW025 BKN035
     FM011900 28006KT P6SM VCSH SCT025 BKN040
     FM012300 VRB03KT P6SM SCT050 BKN080
     FM020400 VRB03KT P6SM VCSH BKN050
     FM020900 30004KT P6SM VCSH BKN025=



000
FTUS41 KILN 011449 AAB
TAFCVG
TAF AMD
KCVG 011449Z 0115/0218 20006KT P6SM FEW015 BKN080
     FM011700 26006KT P6SM VCSH SCT025 BKN035
      TEMPO 0119/0122 -SHRA
     FM012200 24005KT P6SM SCT050 BKN080
     FM020100 21003KT P6SM VCSH BKN050
     FM021100 29004KT P6SM SCT025 BKN035=



000
FTUS41 KILN 011449 AAB
TAFILN
TAF AMD
KILN 011449Z 0115/0212 22006KT P6SM BKN035
      TEMPO 0115/0116 BKN022
     FM011800 27005KT P6SM VCSH SCT025 BKN040
      TEMPO 0119/0122 -SHRA
     FM012300 VRB03KT P6SM SCT050 BKN080
     FM020200 VRB03KT P6SM VCSH BKN040
     FM021100 33005KT P6SM BKN025=



000
FTUS41 KILN 011449 AAA
TAFDAY
TAF AMD
KDAY 011449Z 0115/0212 22006KT P6SM BKN022
      TEMPO 0115/0116 BKN008
     FM011800 27005KT P6SM VCSH SCT025 BKN040
      TEMPO 0118/0121 -SHRA
     FM012200 VRB03KT P6SM SCT050 BKN080
     FM020100 VRB03KT P6SM VCSH BKN040
     FM021000 33005KT P6SM BKN025=



000
FTUS41 KILN 011449 AAA
TAFLCK
TAF AMD
KLCK 011449Z 0115/0212 22004KT P6SM BKN015
     FM011700 25006KT P6SM FEW025 BKN035
     FM011900 28006KT P6SM VCSH SCT025 BKN040
     FM012300 VRB03KT P6SM SCT050 BKN080
     FM020400 VRB03KT P6SM VCSH BKN050
     FM020900 30004KT P6SM VCSH BKN025=



000
FTUS41 KILN 011449 AAB
TAFLUK
TAF AMD
KLUK 011449Z 0115/0212 20006KT P6SM FEW015 BKN080
     FM011700 26006KT P6SM VCSH SCT028 BKN035
      TEMPO 0119/0122 -SHRA
     FM012200 24005KT P6SM SCT050 BKN080
     FM020100 21003KT P6SM VCSH BKN050
     FM021100 29004KT P6SM SCT025 BKN035=



000
FTUS41 KILN 011241 AAA
TAFCVG
TAF AMD
KCVG 011241Z 0113/0218 20006KT P6SM FEW015 BKN080
      TEMPO 0113/0115 BKN015
     FM011700 26006KT P6SM VCSH SCT025 BKN035
      TEMPO 0120/0124 P6SM -SHRA SCT025 BKN035
     FM020200 21005KT P6SM SCT050 BKN080
     FM020600 21005KT P6SM VCSH BKN050
     FM021300 VRB04KT P6SM SCT025 BKN035=



000
FTUS41 KILN 011241 AAA
TAFLUK
TAF AMD
KLUK 011241Z 0113/0212 20006KT P6SM FEW015 BKN080
      TEMPO 0113/0115 BKN018
     FM011700 26005KT P6SM VCSH SCT028 BKN040
      TEMPO 0120/0124 P6SM -SHRA SCT025 BKN035
     FM020200 21005KT P6SM SCT050 BKN080
     FM020600 21005KT P6SM VCSH BKN050=



000
FTUS41 KILN 011121
TAFDAY
TAF
KDAY 011121Z 0112/0212 18006KT 5SM BR OVC008
     FM011500 26006KT P6SM VCSH BKN022 BKN035
     FM011800 28005KT P6SM VCSH SCT025 BKN040
      TEMPO 0120/0124 P6SM -SHRA SCT025 BKN035
     FM020200 21005KT P6SM SCT050 BKN080
     FM020600 21005KT P6SM VCSH BKN050=



000
FTUS41 KILN 011121
TAFCMH
TAF
KCMH 011121Z 0112/0212 22006KT P6SM BKN015
     FM011800 26006KT P6SM FEW025 BKN035
     FM012200 28006KT P6SM VCSH SCT025 BKN040
     FM020200 21005KT P6SM SCT050 BKN080
     FM020600 21005KT P6SM VCSH BKN050=



000
FTUS41 KILN 011121
TAFCVG
TAF
KCVG 011121Z 0112/0218 20006KT P6SM SCT006 BKN012
      TEMPO 0112/0114 5SM BR BKN006
     FM011600 26006KT P6SM VCSH SCT025 BKN035
      TEMPO 0120/0124 P6SM -SHRA SCT025 BKN035
     FM020200 21005KT P6SM SCT050 BKN080
     FM020600 21005KT P6SM VCSH BKN050
     FM021300 VRB04KT P6SM SCT025 BKN035=



000
FTUS41 KILN 011121
TAFLUK
TAF
KLUK 011121Z 0112/0212 20006KT P6SM SCT008 BKN012
      TEMPO 0112/0114 4SM BR BKN006
     FM011600 26005KT P6SM VCSH SCT028 BKN040
      TEMPO 0120/0124 P6SM -SHRA SCT025 BKN035
     FM020200 21005KT P6SM SCT050 BKN080
     FM020600 21005KT P6SM VCSH BKN050=



000
FTUS41 KILN 011121
TAFLCK
TAF
KLCK 011121Z 0112/0212 23006KT P6SM BKN015
     FM011800 26006KT P6SM FEW025 BKN035
     FM012200 28006KT P6SM VCSH SCT025 BKN040
     FM020200 21005KT P6SM SCT050 BKN080
     FM020600 21005KT P6SM VCSH BKN050=



000
FTUS41 KILN 011121
TAFILN
TAF
KILN 011121Z 0112/0212 23006KT 5SM BR BKN012
      TEMPO 0112/0114 4SM BR BKN006
     FM011400 26006KT P6SM BKN025
     FM011700 26006KT P6SM VCSH BKN025 BKN035
     FM012100 27005KT P6SM VCSH SCT025 BKN040
     FM020200 21005KT P6SM SCT050 BKN080
     FM020600 21005KT P6SM VCSH BKN050=



000
FTUS41 KILN 011121
TAFLUK
TAF
KLUK 011121Z 0112/0212 20006KT P6SM SCT008 BKN012
      TEMPO 0112/0114 4SM BR BKN006
     FM011600 26005KT P6SM VCSH SCT028 BKN040
      TEMPO 0120/0124 P6SM -SHRA SCT025 BKN035
     FM020200 21005KT P6SM SCT050 BKN080
     FM020600 21005KT P6SM VCSH BKN050=



000
FTUS41 KILN 011121
TAFCVG
TAF
KCVG 011121Z 0112/0218 20006KT P6SM SCT006 BKN012
      TEMPO 0112/0114 5SM BR BKN006
     FM011600 26006KT P6SM VCSH SCT025 BKN035
      TEMPO 0120/0124 P6SM -SHRA SCT025 BKN035
     FM020200 21005KT P6SM SCT050 BKN080
     FM020600 21005KT P6SM VCSH BKN050
     FM021300 VRB04KT P6SM SCT025 BKN035=



000
FTUS41 KILN 011121
TAFDAY
TAF
KDAY 011121Z 0112/0212 18006KT 5SM BR OVC008
     FM011500 26006KT P6SM VCSH BKN022 BKN035
     FM011800 28005KT P6SM VCSH SCT025 BKN040
      TEMPO 0120/0124 P6SM -SHRA SCT025 BKN035
     FM020200 21005KT P6SM SCT050 BKN080
     FM020600 21005KT P6SM VCSH BKN050=



000
FTUS41 KILN 011121
TAFLCK
TAF
KLCK 011121Z 0112/0212 23006KT P6SM BKN015
     FM011800 26006KT P6SM FEW025 BKN035
     FM012200 28006KT P6SM VCSH SCT025 BKN040
     FM020200 21005KT P6SM SCT050 BKN080
     FM020600 21005KT P6SM VCSH BKN050=



000
FTUS41 KILN 011121
TAFCMH
TAF
KCMH 011121Z 0112/0212 22006KT P6SM BKN015
     FM011800 26006KT P6SM FEW025 BKN035
     FM012200 28006KT P6SM VCSH SCT025 BKN040
     FM020200 21005KT P6SM SCT050 BKN080
     FM020600 21005KT P6SM VCSH BKN050=



000
FTUS41 KILN 011121
TAFILN
TAF
KILN 011121Z 0112/0212 23006KT 5SM BR BKN012
      TEMPO 0112/0114 4SM BR BKN006
     FM011400 26006KT P6SM BKN025
     FM011700 26006KT P6SM VCSH BKN025 BKN035
     FM012100 27005KT P6SM VCSH SCT025 BKN040
     FM020200 21005KT P6SM SCT050 BKN080
     FM020600 21005KT P6SM VCSH BKN050=



000
FTUS41 KILN 010900 AAA
TAFCVG
TAF AMD
KCVG 010900Z 0109/0212 18006KT 4SM BR OVC006
     FM011500 24006KT P6SM VCSH SCT006 BKN025 BKN035
     FM012000 26005KT P6SM VCSH SCT025 BKN040
      TEMPO 0120/0124 P6SM -SHRA SCT025 BKN035
     FM020200 21005KT P6SM SCT050 BKN080
     FM020600 21005KT P6SM VCSH BKN050=



000
FTUS41 KILN 010900 AAA
TAFCVG
TAF AMD
KCVG 010900Z 0109/0212 18006KT 4SM BR OVC006
     FM011500 24006KT P6SM VCSH SCT006 BKN025 BKN035
     FM012000 26005KT P6SM VCSH SCT025 BKN040
      TEMPO 0120/0124 P6SM -SHRA SCT025 BKN035
     FM020200 21005KT P6SM SCT050 BKN080
     FM020600 21005KT P6SM VCSH BKN050=



000
FTUS41 KILN 010520
TAFLUK
TAF
KLUK 010520Z 0106/0206 18008KT 4SM -SHRA BKN009
     FM010800 18006KT 4SM BR OVC008
     FM011500 23005KT P6SM SCT008 BKN028 BKN040
     FM012000 26005KT P6SM VCSH SCT028 BKN040
      TEMPO 0120/0124 P6SM -SHRA SCT025 BKN035
     FM020200 21005KT P6SM SCT050 BKN080=



000
FTUS41 KILN 010520
TAFCVG
TAF
KCVG 010520Z 0106/0212 18008KT 4SM -SHRA BKN006
     FM010800 18006KT 4SM BR OVC006
     FM011500 24006KT P6SM VCSH SCT006 BKN025 BKN035
     FM012000 26005KT P6SM VCSH SCT025 BKN040
      TEMPO 0120/0124 P6SM -SHRA SCT025 BKN035
     FM020200 21005KT P6SM SCT050 BKN080
     FM020600 21005KT P6SM VCSH BKN050=



000
FTUS41 KILN 010520
TAFLCK
TAF
KLCK 010520Z 0106/0206 17010KT 4SM -SHRA OVC008
     FM010800 17006KT 4SM BR OVC006
     FM011500 23006KT P6SM BKN015
     FM011800 26006KT P6SM FEW025 BKN035
     FM012200 28006KT P6SM VCSH SCT025 BKN040
     FM020200 21005KT P6SM SCT050 BKN080=



000
FTUS41 KILN 010520
TAFDAY
TAF
KDAY 010520Z 0106/0206 18008KT 4SM -SHRA OVC004
     FM010800 18006KT 4SM BR OVC004
     FM011500 26006KT P6SM VCSH BKN022 BKN035
     FM012000 28005KT P6SM VCSH SCT025 BKN040
      TEMPO 0120/0124 P6SM -SHRA SCT025 BKN035
     FM020200 21005KT P6SM SCT050 BKN080=



000
FTUS41 KILN 010520
TAFILN
TAF
KILN 010520Z 0106/0206 14008KT 4SM -SHRA OVC006
     FM010800 16006KT 4SM BR OVC006
     FM011400 23006KT P6SM BKN012
     FM011700 25006KT P6SM VCSH BKN025 BKN035
     FM012100 27005KT P6SM VCSH SCT025 BKN040
     FM020200 21005KT P6SM SCT050 BKN080=



000
FTUS41 KILN 010520
TAFCMH
TAF
KCMH 010520Z 0106/0206 17010KT 4SM -SHRA OVC008
     FM010800 17006KT 4SM BR OVC006
     FM011500 23006KT P6SM BKN015
     FM011800 26006KT P6SM FEW025 BKN035
     FM012200 28006KT P6SM VCSH SCT025 BKN040
     FM020200 21005KT P6SM SCT050 BKN080=



000
FTUS41 KILN 010244 AAA
TAFCMH
TAF AMD
KCMH 010244Z 0103/0124 14010KT 4SM -SHRA OVC008
      TEMPO 0104/0108 2SM SHRA
     FM010800 17006KT 4SM BR OVC006
     FM011500 23006KT P6SM BKN015
     FM011800 26006KT P6SM FEW025 BKN035
     FM012200 28006KT P6SM VCSH SCT025 BKN040=



000
FTUS41 KILN 010244 AAA
TAFLCK
TAF AMD
KLCK 010244Z 0103/0124 14010KT 4SM -SHRA OVC008
      TEMPO 0104/0108 2SM SHRA
     FM010800 17006KT 4SM BR OVC006
     FM011500 23006KT P6SM BKN015
     FM011800 26006KT P6SM FEW025 BKN035
     FM012200 28006KT P6SM VCSH SCT025 BKN040=



000
FTUS41 KILN 010244 AAA
TAFCVG
TAF AMD
KCVG 010244Z 0103/0206 15008KT 4SM -SHRA SCT015 BKN040
      TEMPO 0103/0106 2SM SHRA BKN015
     FM010700 18006KT 4SM BR OVC006
     FM011400 23005KT P6SM BKN015
     FM011700 24006KT P6SM BKN035
     FM012000 26005KT P6SM VCSH SCT025 BKN040
     FM020200 28005KT P6SM SCT050 BKN080=



000
FTUS41 KILN 010244 AAA
TAFILN
TAF AMD
KILN 010244Z 0103/0124 14008KT 4SM -SHRA OVC012
      TEMPO 0103/0107 2SM SHRA
     FM010800 16006KT 4SM BR OVC006
     FM011400 23006KT P6SM BKN012
     FM011800 25006KT P6SM FEW025 BKN035
     FM012100 27005KT P6SM VCSH SCT025 BKN040=



000
FTUS41 KILN 010244 AAA
TAFLUK
TAF AMD
KLUK 010244Z 0103/0124 15008KT 4SM -SHRA SCT015 BKN040
      TEMPO 0103/0106 2SM SHRA
     FM010700 18006KT 4SM BR OVC008
     FM011400 23005KT P6SM BKN018
     FM011700 24006KT P6SM BKN035
     FM012000 26005KT P6SM VCSH SCT025 BKN040=



000
FTUS41 KILN 010244 AAA
TAFDAY
TAF AMD
KDAY 010244Z 0103/0124 14008KT 4SM -SHRA OVC008
      TEMPO 0103/0106 2SM SHRA
     FM010700 17006KT 4SM BR OVC006
     FM011400 24006KT P6SM BKN012
     FM011700 26006KT P6SM FEW025 BKN035
     FM012000 28005KT P6SM VCSH SCT025 BKN040=



000
FTUS41 KILN 302332
TAFLCK
TAF
KLCK 302332Z 0100/0124 13010KT P6SM VCSH OVC012
     FM010200 14010KT 4SM -SHRA OVC008
      TEMPO 0102/0106 2SM SHRA
     FM010800 17006KT 4SM BR OVC006
     FM011500 23006KT P6SM BKN015
     FM011800 26006KT P6SM FEW025 BKN035
     FM012200 28006KT P6SM VCSH SCT025 BKN040=



000
FTUS41 KILN 302332
TAFLUK
TAF
KLUK 302332Z 0100/0124 15008KT 4SM -SHRA BKN018
      TEMPO 0100/0104 2SM SHRA
     FM010700 18006KT 4SM BR OVC008
     FM011400 23005KT P6SM BKN018
     FM011700 24006KT P6SM BKN035
     FM012000 26005KT P6SM VCSH SCT025 BKN040=



000
FTUS41 KILN 302332
TAFCVG
TAF
KCVG 302332Z 0100/0206 15008KT 4SM -SHRA BKN015
      TEMPO 0100/0104 2SM SHRA
     FM010700 18006KT 4SM BR OVC006
     FM011400 23005KT P6SM BKN015
     FM011700 24006KT P6SM BKN035
     FM012000 26005KT P6SM VCSH SCT025 BKN040
     FM020200 28005KT P6SM SCT050 BKN080=



000
FTUS41 KILN 302332
TAFCMH
TAF
KCMH 302332Z 0100/0124 13010KT P6SM VCSH OVC012
     FM010200 14010KT 4SM -SHRA OVC008
      TEMPO 0102/0106 2SM SHRA
     FM010800 17006KT 4SM BR OVC006
     FM011500 23006KT P6SM BKN015
     FM011800 26006KT P6SM FEW025 BKN035
     FM012200 28006KT P6SM VCSH SCT025 BKN040=



000
FTUS41 KILN 302332
TAFILN
TAF
KILN 302332Z 0100/0124 13008KT 4SM -SHRA OVC015
      TEMPO 0101/0105 2SM SHRA
     FM010800 16006KT 4SM BR OVC006
     FM011400 23006KT P6SM BKN012
     FM011800 25006KT P6SM FEW025 BKN035
     FM012100 27005KT P6SM VCSH SCT025 BKN040=



000
FTUS41 KILN 302332
TAFDAY
TAF
KDAY 302332Z 0100/0124 13008KT 4SM -SHRA OVC008
      TEMPO 0100/0104 2SM SHRA
     FM010700 17006KT 4SM BR OVC006
     FM011400 24006KT P6SM BKN012
     FM011700 26006KT P6SM FEW025 BKN035
     FM012000 28005KT P6SM VCSH SCT025 BKN040=



000
FTUS41 KILN 302217 AAA
TAFDAY
TAF AMD
KDAY 302217Z 3022/0118 12012KT 4SM SHRA BR OVC008
     FM010300 18010KT 4SM BR VCSH OVC015
      TEMPO 0103/0107 2SM SHRA BR OVC008
     FM010700 21006KT 4SM BR OVC007
     FM011400 23006KT P6SM BKN015=



000
FTUS41 KILN 302217 AAB
TAFILN
TAF AMD
KILN 302217Z 3022/0118 14010KT 5SM BR OVC008
     FM010300 18010KT 4SM BR VCSH OVC015
      TEMPO 0103/0107 2SM SHRA BR OVC008
     FM010700 20006KT 4SM BR OVC007
     FM011400 23006KT P6SM BKN015=



000
FTUS41 KILN 302217 AAA
TAFLCK
TAF AMD
KLCK 302217Z 3022/0118 13010KT 5SM SHRA BR OVC012
     FM010100 14010KT 4SM BR VCSH OVC008
     FM010400 18010KT 4SM BR VCSH OVC015
      TEMPO 0104/0108 2SM SHRA BR OVC008
     FM010800 19006KT 4SM BR OVC007
     FM011400 23006KT P6SM BKN015=



000
FTUS41 KILN 302217 AAB
TAFCVG
TAF AMD
KCVG 302217Z 3022/0124 14010KT P6SM VCSH OVC008
     FM010000 17010KT 4SM BR VCTS BKN015CB
      TEMPO 0103/0107 2SM SHRA BR OVC008
     FM010700 18006KT 4SM BR OVC007
     FM011400 24005KT P6SM BKN015
     FM011800 23006KT P6SM BKN035=



000
FTUS41 KILN 302217 AAA
TAFCMH
TAF AMD
KCMH 302217Z 3022/0118 13010KT 5SM SHRA BR OVC012
     FM010100 14010KT 4SM BR VCSH OVC008
     FM010400 18010KT 4SM BR VCSH OVC015
      TEMPO 0104/0108 2SM SHRA BR OVC008
     FM010800 19006KT 4SM BR OVC007
     FM011400 23006KT P6SM BKN015=



000
FTUS41 KILN 302217 AAB
TAFLUK
TAF AMD
KLUK 302217Z 3022/0118 14010KT P6SM VCSH OVC012
     FM010000 17010KT 4SM BR VCTS BKN018CB
      TEMPO 0103/0107 2SM SHRA BR OVC010
     FM010700 18006KT 4SM BR OVC010
     FM011400 24005KT P6SM BKN018=



000
FTUS41 KILN 302057 AAA
TAFLUK
TAF AMD
KLUK 302057Z 3021/0118 13010KT 5SM BR VCSH OVC012
     FM302200 14010KT P6SM VCSH SCT015 BKN025
     FM010000 17010KT 4SM BR VCTS BKN018CB
      TEMPO 0103/0107 2SM SHRA BR OVC010
     FM010700 18006KT 4SM BR OVC010
     FM011400 24005KT P6SM BKN018=



000
FTUS41 KILN 302057 AAA
TAFCVG
TAF AMD
KCVG 302057Z 3021/0124 13010KT 5SM BR VCSH OVC008
     FM302200 14010KT P6SM VCSH SCT015 BKN025
     FM010000 17010KT 4SM BR VCTS BKN015CB
      TEMPO 0103/0107 2SM SHRA BR OVC008
     FM010700 18006KT 4SM BR OVC007
     FM011400 24005KT P6SM BKN015
     FM011800 23006KT P6SM BKN035=



000
FTUS41 KILN 301742
TAFLUK
TAF
KLUK 301742Z 3018/0118 09010KT 2SM SHRA BR OVC018
     FM302100 13010KT 2SM BR VCSH OVC010
     FM010000 17010KT 4SM BR VCTS BKN018CB
      TEMPO 0103/0107 2SM SHRA BR OVC010
     FM010700 18006KT 4SM BR OVC010
     FM011400 24005KT P6SM BKN018=



000
FTUS41 KILN 301742
TAFLCK
TAF
KLCK 301742Z 3018/0118 10008KT 4SM -SHRA BR OVC025
     FM302100 11010KT 2SM SHRA BR OVC015
     FM010000 12010KT 4SM BR OVC008
     FM010400 18010KT 4SM BR VCTS OVC015CB
      TEMPO 0104/0108 2SM SHRA BR OVC008
     FM010800 19006KT 4SM BR OVC007
     FM011400 23006KT P6SM BKN015=



000
FTUS41 KILN 301742
TAFDAY
TAF
KDAY 301742Z 3018/0118 12012KT 2SM SHRA BR BKN008 OVC015
     FM302300 14012KT 4SM -SHRA BR OVC008
     FM010300 18010KT 4SM BR VCTS OVC015CB
      TEMPO 0103/0107 2SM SHRA BR OVC008
     FM010700 21006KT 4SM BR OVC007
     FM011400 23006KT P6SM BKN015=



000
FTUS41 KILN 301742
TAFILN
TAF
KILN 301742Z 3018/0118 10008KT 2SM SHRA BR SCT008 OVC015
     FM302200 14010KT 4SM BR OVC008
     FM010300 18010KT 4SM BR VCTS OVC015CB
      TEMPO 0103/0107 2SM SHRA BR OVC008
     FM010700 20006KT 4SM BR OVC007
     FM011400 23006KT P6SM BKN015=



000
FTUS41 KILN 301742
TAFCVG
TAF
KCVG 301742Z 3018/0124 11010KT 2SM SHRA BR SCT007 OVC015
     FM302100 13010KT 2SM BR VCSH OVC007
     FM010000 17010KT 4SM BR VCTS BKN015CB
      TEMPO 0103/0107 2SM SHRA BR OVC008
     FM010700 18006KT 4SM BR OVC007
     FM011400 24005KT P6SM BKN015
     FM011800 23006KT P6SM BKN035=



000
FTUS41 KILN 301742
TAFCMH
TAF
KCMH 301742Z 3018/0118 10008KT 4SM -SHRA BR OVC025
     FM302100 11010KT 2SM SHRA BR OVC015
     FM010000 12010KT 4SM BR OVC008
     FM010400 18010KT 4SM BR VCTS OVC015CB
      TEMPO 0104/0108 2SM SHRA BR OVC008
     FM010800 19006KT 4SM BR OVC007
     FM011400 23006KT P6SM BKN015=



000
FTUS41 KILN 301506 AAB
TAFCVG
TAF AMD
KCVG 301506Z 3015/0118 09008KT 4SM -SHRA BR OVC035
     FM301800 11012G19KT 2SM -SHRA BR OVC015
     FM010000 19010KT 4SM BR VCSH BKN008
     FM010600 19008KT 5SM BR VCSH OVC015
     FM011200 20006KT 5SM BR OVC015=



000
FTUS41 KILN 301506 AAB
TAFLUK
TAF AMD
KLUK 301506Z 3015/0112 08007KT 4SM -SHRA BR OVC035
     FM301800 11009G18KT 2SM -SHRA BR OVC019
     FM010200 17008KT 4SM BR VCSH OVC015
     FM010600 20005KT 5SM BR OVC025=



000
FTUS41 KILN 301506 AAB
TAFCVG
TAF AMD
KCVG 301506Z 3015/0118 09008KT 4SM -SHRA BR OVC035
     FM301800 11012G19KT 2SM -SHRA BR OVC015
     FM010000 19010KT 4SM BR VCSH BKN008
     FM010600 19008KT 5SM BR VCSH OVC015
     FM011200 20006KT 5SM BR OVC015=



000
FTUS41 KILN 301506 AAB
TAFLUK
TAF AMD
KLUK 301506Z 3015/0112 08007KT 4SM -SHRA BR OVC035
     FM301800 11009G18KT 2SM -SHRA BR OVC019
     FM010200 17008KT 4SM BR VCSH OVC015
     FM010600 20005KT 5SM BR OVC025=



000
FTUS41 KILN 301414 AAA
TAFLUK
TAF AMD
KLUK 301414Z 3014/0112 08007KT 4SM -SHRA BR OVC035
     FM301600 09009KT 2SM -SHRA BR OVC020
     FM301800 11009G18KT 2SM -SHRA BR OVC015
     FM010200 17008KT 4SM BR VCSH OVC015
     FM010600 20005KT 5SM BR OVC025=



000
FTUS41 KILN 301413 AAA
TAFCVG
TAF AMD
KCVG 301413Z 3014/0118 09011G18KT 4SM -SHRA BR OVC035
     FM301600 11012G19KT 2SM -SHRA BR OVC015
     FM010000 19010KT 4SM BR VCSH BKN008
     FM010600 19008KT 5SM BR VCSH OVC015
     FM011200 20006KT 5SM BR OVC015=



000
FTUS41 KILN 301139
TAFLUK
TAF
KLUK 301139Z 3012/0112 06006KT P6SM VCSH OVC070
     FM301400 08007KT 4SM -SHRA BR OVC025
     FM301600 09009KT 2SM -SHRA BR OVC020
     FM301800 11009G18KT 2SM -SHRA BR OVC015
     FM010200 17008KT 4SM BR VCSH OVC015
     FM010600 20005KT 5SM BR OVC025=



000
FTUS41 KILN 301139
TAFLCK
TAF
KLCK 301139Z 3012/0112 09008KT P6SM BKN009 OVC080
     FM301400 10009KT P6SM OVC050
     FM301800 11010G18KT 4SM -SHRA BR OVC025
     FM302200 15014G24KT 2SM -SHRA BR OVC012
     FM010400 19012G22KT 5SM BR VCSH OVC012=



000
FTUS41 KILN 301139
TAFCMH
TAF
KCMH 301139Z 3012/0112 09009KT P6SM BKN008 OVC080
     FM301400 10009KT P6SM OVC050
     FM301800 11010G18KT 4SM -SHRA BR OVC025
     FM302200 15014G24KT 2SM -SHRA BR OVC012
     FM010400 19012G22KT 5SM BR VCSH OVC012=



000
FTUS41 KILN 301139
TAFDAY
TAF
KDAY 301139Z 3012/0112 09009KT P6SM OVC080
     FM301600 11009KT 4SM -SHRA BR OVC025
     FM301800 12012G22KT 2SM -SHRA BR OVC015
     FM302200 15015G25KT 3SM -SHRA BR OVC008
     FM010400 20010KT 5SM BR VCSH OVC012=



000
FTUS41 KILN 301139
TAFILN
TAF
KILN 301139Z 3012/0112 05008KT P6SM OVC070
     FM301500 10009KT 4SM -SHRA BR OVC025
     FM301800 11012G21KT 2SM -SHRA BR OVC015
     FM302200 15014G24KT 3SM -SHRA BR OVC008
     FM010400 19010KT 5SM BR VCSH OVC012=



000
FTUS41 KILN 301139
TAFCVG
TAF
KCVG 301139Z 3012/0118 09009KT P6SM VCSH OVC060
     FM301400 09011G18KT 4SM -SHRA BR OVC025
     FM301600 11012G19KT 2SM -SHRA BR OVC015
     FM010000 19010KT 4SM BR VCSH BKN008
     FM010600 19008KT 5SM BR VCSH OVC015
     FM011200 20006KT 5SM BR OVC015=



    US Dept of Commerce
    National Oceanic and Atmospheric Administration
    National Weather Service
    1325 East West Highway
    Silver Spring, MD 20910
    Page Author: NWS Internet Services Team
Disclaimer
Information Quality
Credits
Glossary
Privacy Policy
Freedom of Information Act (FOIA)
About Us
Career Opportunities